Time;durP1;ratioP1;P1;durP2;ratioP2;P2;SDS_P1;SDS_P2;PMS_P1;PMS_P2;Temp;Humidity;BMP_temperature;BMP_pressure;BME280_temperature;BME280_humidity;BME280_pressure;Samples;Min_cycle;Max_cycle;Signal;HPM_P1;HPM_P2
2022/04/14 00:00:53;;;;;;;75.15;26.00;;;;;;;10.81;92.40;101980.78;5005183;28;20272;-80
2022/04/14 00:03:19;;;;;;;39.95;23.67;;;;;;;10.78;92.46;101983.28;5000263;28;20030;-80
2022/04/14 00:05:45;;;;;;;44.88;23.73;;;;;;;10.77;92.85;101981.47;4998878;28;20475;-80
2022/04/14 00:08:10;;;;;;;38.50;25.30;;;;;;;10.78;92.81;101980.66;4995109;28;20034;-80
2022/04/14 00:10:35;;;;;;;39.38;23.92;;;;;;;10.76;91.23;101982.28;5002579;28;20265;-80
2022/04/14 00:13:00;;;;;;;34.92;22.63;;;;;;;10.68;88.79;101973.28;5003941;28;20026;-80
2022/04/14 00:15:26;;;;;;;36.17;23.05;;;;;;;10.62;88.92;101976.53;5000891;28;20029;-80
2022/04/14 00:17:52;;;;;;;35.08;23.20;;;;;;;10.60;89.23;101976.47;4993192;28;20089;-80
2022/04/14 00:20:17;;;;;;;33.45;22.00;;;;;;;10.55;89.57;101967.56;5001463;28;20057;-80
2022/04/14 00:22:42;;;;;;;36.50;22.77;;;;;;;10.54;89.39;101963.19;4995346;28;20368;-80
2022/04/14 00:25:10;;;;;;;33.97;22.30;;;;;;;10.52;89.15;101967.44;4999863;28;20022;-80
2022/04/14 00:27:36;;;;;;;30.98;20.90;;;;;;;10.50;89.30;101963.88;4997538;28;20062;-80
2022/04/14 00:30:01;;;;;;;30.75;21.25;;;;;;;10.48;89.24;101970.72;4994430;28;20843;-80
2022/04/14 00:32:27;;;;;;;25.52;18.95;;;;;;;10.44;89.95;101968.81;4993236;28;20014;-80
2022/04/14 00:34:52;;;;;;;27.92;19.23;;;;;;;10.43;90.17;101964.47;5002511;28;20002;-80
2022/04/14 00:37:17;;;;;;;30.58;21.52;;;;;;;10.43;90.06;101967.06;4997631;28;20036;-80
2022/04/14 00:39:43;;;;;;;27.73;19.77;;;;;;;10.45;90.52;101954.97;4999463;28;20320;-80
2022/04/14 00:42:12;;;;;;;33.50;22.38;;;;;;;10.44;90.42;101964.50;4996953;28;20023;-80
2022/04/14 00:44:37;;;;;;;;;;;;;;;10.56;89.16;101964.13;4990720;28;20038;-80
2022/04/14 00:47:03;;;;;;;45.63;27.23;;;;;;;10.50;91.37;101965.59;4998166;28;19906;-80
2022/04/14 00:49:29;;;;;;;39.80;24.92;;;;;;;10.48;91.08;101959.44;4990644;28;20253;-80
2022/04/14 00:51:54;;;;;;;31.00;21.15;;;;;;;10.45;89.88;101968.00;4994159;28;20337;-80
2022/04/14 00:54:20;;;;;;;33.38;22.58;;;;;;;10.44;90.12;101968.81;4993823;28;20021;-80
2022/04/14 00:56:45;;;;;;;62.67;24.13;;;;;;;10.42;91.36;101960.94;5002325;28;20034;-80
2022/04/14 00:59:10;;;;;;;47.00;23.90;;;;;;;10.41;91.88;101955.66;4994730;28;20115;-80
2022/04/14 01:01:36;;;;;;;68.63;24.88;;;;;;;10.41;91.73;101960.88;5000089;28;20288;-80
2022/04/14 01:04:02;;;;;;;78.50;25.50;;;;;;;10.34;91.42;101961.44;5000273;28;20038;-80
2022/04/14 01:06:28;;;;;;;74.15;27.10;;;;;;;10.30;92.10;101965.63;4994186;28;20205;-80
2022/04/14 01:11:39;;;;;;;42.25;26.10;;;;;;;10.32;92.77;101963.06;4997445;28;20086;-80
2022/04/14 01:14:04;;;;;;;36.65;24.83;;;;;;;10.35;92.97;101960.63;4989967;28;20030;-80
2022/04/14 01:16:30;;;;;;;44.22;25.42;;;;;;;10.36;93.34;101955.47;4992954;28;20033;-80
2022/04/14 01:18:55;;;;;;;36.63;24.35;;;;;;;10.38;93.30;101961.63;4993391;28;20023;-80
2022/04/14 01:21:21;;;;;;;55.45;23.30;;;;;;;10.35;92.87;101958.03;4998932;28;20034;-79
2022/04/14 01:23:48;;;;;;;35.08;23.45;;;;;;;10.30;92.87;101960.41;4998919;28;20022;-80
2022/04/14 01:26:13;;;;;;;36.17;24.02;;;;;;;10.27;93.00;101966.38;5002162;28;20232;-79
2022/04/14 01:28:39;;;;;;;38.83;24.95;;;;;;;10.27;92.81;101962.88;4997132;28;20027;-80
2022/04/14 01:31:04;;;;;;;40.17;27.13;;;;;;;10.30;93.75;101957.78;4993941;28;20089;-80
2022/04/14 01:33:30;;;;;;;40.42;24.95;;;;;;;10.33;93.43;101954.44;4998034;28;20141;-80
2022/04/14 01:35:55;;;;;;;41.70;27.50;;;;;;;10.33;93.06;101950.09;4992281;28;20073;-80
2022/04/14 01:38:20;;;;;;;44.00;28.13;;;;;;;10.35;92.71;101955.41;4992617;28;20142;-80
2022/04/14 01:40:46;;;;;;;42.78;27.42;;;;;;;10.38;93.64;101960.75;4992643;28;20026;-80
2022/04/14 01:43:11;;;;;;;45.15;28.10;;;;;;;10.38;93.47;101955.53;4995988;28;20093;-80
2022/04/14 01:45:36;;;;;;;46.78;29.90;;;;;;;10.43;94.07;101951.44;4990132;28;20046;-80
2022/04/14 01:48:02;;;;;;;45.25;28.88;;;;;;;10.43;93.85;101960.13;5000379;28;20093;-80
2022/04/14 01:50:27;;;;;;;43.30;27.23;;;;;;;10.47;93.08;101958.56;5003470;28;20156;-79
2022/04/14 01:52:52;;;;;;;43.05;27.42;;;;;;;10.47;93.02;101952.44;5000969;28;20129;-80
2022/04/14 01:55:18;;;;;;;42.85;27.10;;;;;;;10.47;92.80;101963.75;5003801;28;20014;-80
2022/04/14 01:57:44;;;;;;;42.47;26.80;;;;;;;10.46;93.02;101961.06;5004325;28;20257;-80
2022/04/14 02:00:11;;;;;;;42.28;27.52;;;;;;;10.44;92.90;101959.31;4993618;28;20201;-80
2022/04/14 02:02:36;;;;;;;44.22;28.45;;;;;;;10.46;93.13;101967.19;4999940;28;20085;-80
2022/04/14 02:05:02;;;;;;;37.70;24.42;;;;;;;10.38;90.70;101965.97;4998176;28;20014;-80
2022/04/14 02:07:27;;;;;;;32.10;22.48;;;;;;;10.29;89.85;101969.03;4999295;28;20042;-80
2022/04/14 02:09:53;;;;;;;32.97;22.40;;;;;;;10.25;90.34;101972.31;4993549;28;20034;-80
2022/04/14 02:12:18;;;;;;;34.42;23.27;;;;;;;10.24;90.08;101971.44;4995215;28;20089;-80
2022/04/14 02:14:43;;;;;;;34.53;23.05;;;;;;;10.20;89.88;101969.53;5000009;28;20216;-80
2022/04/14 02:17:09;;;;;;;35.80;22.58;;;;;;;10.22;90.07;101974.81;5002747;28;20056;-80
2022/04/14 02:19:34;;;;;;;33.95;22.75;;;;;;;10.18;90.34;101972.88;4990577;28;20018;-80
2022/04/14 02:21:59;;;;;;;34.80;23.42;;;;;;;10.17;90.35;101979.81;4999465;28;20030;-80
2022/04/14 02:24:25;;;;;;;34.47;22.48;;;;;;;10.20;90.77;101973.84;5002671;28;20293;-79
2022/04/14 02:26:51;;;;;;;36.65;23.73;;;;;;;10.19;91.16;101972.94;5000415;28;20030;-80
2022/04/14 02:29:17;;;;;;;33.17;22.85;;;;;;;10.18;90.56;101976.41;5001091;28;20036;-80
2022/04/14 02:31:42;;;;;;;34.22;23.35;;;;;;;10.21;91.07;101979.13;5001465;28;20046;-80
2022/04/14 02:34:08;;;;;;;35.90;23.95;;;;;;;10.20;90.96;101976.47;5001909;28;20192;-80
2022/04/14 02:36:33;;;;;;;32.90;22.42;;;;;;;10.20;91.02;101973.84;4996563;28;20072;-80
2022/04/14 02:38:58;;;;;;;31.65;21.40;;;;;;;10.17;90.92;101979.81;4998882;28;20022;-80
2022/04/14 02:41:24;;;;;;;34.72;22.45;;;;;;;10.15;91.08;101988.38;4993535;28;20069;-80
2022/04/14 02:43:50;;;;;;;35.05;23.17;;;;;;;10.14;91.12;101979.69;4997772;28;20026;-80
2022/04/14 02:46:15;;;;;;;33.22;22.58;;;;;;;10.12;91.87;101983.91;5002186;28;20041;-80
2022/04/14 02:48:40;;;;;;;34.40;23.05;;;;;;;10.08;91.10;101990.72;5001267;28;20096;-79
2022/04/14 02:51:06;;;;;;;30.15;21.17;;;;;;;10.00;90.76;101986.00;5000206;28;20018;-79
2022/04/14 02:53:31;;;;;;;24.85;18.02;;;;;;;9.97;89.85;101991.06;5000275;28;20159;-80
2022/04/14 02:55:56;;;;;;;28.25;18.77;;;;;;;9.94;89.86;101990.94;5002393;28;20121;-79
2022/04/14 02:58:22;;;;;;;34.03;23.05;;;;;;;9.94;90.29;101985.75;4998448;28;20045;-79
2022/04/14 03:00:48;;;;;;;31.20;21.55;;;;;;;9.92;90.45;101973.53;4994444;28;20018;-80
2022/04/14 03:03:13;;;;;;;30.15;20.83;;;;;;;9.89;90.93;101978.59;4997126;28;20084;-79
2022/04/14 03:05:38;;;;;;;38.60;24.63;;;;;;;9.90;92.35;101977.75;4991083;28;20144;-79
2022/04/14 03:08:04;;;;;;;48.08;27.05;;;;;;;9.94;93.32;101977.94;5001006;28;20236;-79
2022/04/14 03:10:29;;;;;;;54.47;24.05;;;;;;;9.93;92.82;101974.41;5000190;28;20022;-80
2022/04/14 03:12:54;;;;;;;35.80;23.95;;;;;;;9.92;92.78;101973.53;4996414;28;20045;-79
2022/04/14 03:15:19;;;;;;;88.30;26.15;;;;;;;9.93;93.51;101971.81;4996688;28;20030;-79
2022/04/14 03:17:45;;;;;;;79.93;26.42;;;;;;;9.94;93.42;101977.94;4995845;28;20036;-79
2022/04/14 03:20:11;;;;;;;38.35;23.73;;;;;;;9.91;93.12;101978.69;5000741;28;20277;-79
2022/04/14 03:22:37;;;;;;;94.28;24.75;;;;;;;9.90;93.71;101979.47;4998910;28;20054;-79
2022/04/14 03:25:07;;;;;;;48.42;26.17;;;;;;;9.91;94.33;101983.88;4997285;28;20031;-79
2022/04/14 03:27:33;;;;;;;40.17;25.20;;;;;;;9.89;93.88;101983.81;4998919;28;20025;-78
2022/04/14 03:29:59;;;;;;;45.03;27.35;;;;;;;9.92;93.78;101985.63;4992594;28;20018;-78
2022/04/14 03:32:25;;;;;;;70.72;28.70;;;;;;;9.92;94.30;101988.25;4999296;28;20034;-78
2022/04/14 03:34:51;;;;;;;66.50;25.88;;;;;;;9.89;93.83;101985.50;4987264;28;20035;-78
2022/04/14 03:37:17;;;;;;;63.63;25.00;;;;;;;9.88;93.35;101986.34;5000795;28;20021;-78
2022/04/14 03:39:42;;;;;;;116.32;24.85;;;;;;;9.81;92.86;101985.16;4993352;28;20030;-78
2022/04/14 03:42:07;;;;;;;42.58;22.80;;;;;;;9.81;92.98;101994.69;4992501;28;20358;-78
2022/04/14 03:44:33;;;;;;;91.45;24.00;;;;;;;9.72;92.61;101987.38;4995286;28;20030;-78
2022/04/14 03:46:58;;;;;;;47.53;23.13;;;;;;;9.70;92.80;101987.31;4999714;28;20037;-79
2022/04/14 03:49:23;;;;;;;127.43;26.40;;;;;;;9.68;93.19;101988.03;5000898;28;20028;-80
2022/04/14 03:51:48;;;;;;;47.15;23.20;;;;;;;9.66;93.31;101982.78;4999151;28;20015;-79
2022/04/14 03:54:14;;;;;;;145.68;29.73;;;;;;;9.65;93.55;101977.50;4998673;28;20192;-79
2022/04/14 03:56:39;;;;;;;54.70;27.35;;;;;;;9.63;93.68;101979.13;4997061;28;20022;-80
2022/04/14 03:59:04;;;;;;;159.93;28.15;;;;;;;9.60;93.74;101979.88;4998528;28;20097;-80
2022/04/14 04:01:29;;;;;;;187.45;29.70;;;;;;;9.54;93.65;101969.19;4994114;28;20181;-79
2022/04/14 04:03:55;;;;;;;124.45;30.45;;;;;;;9.47;94.03;101975.84;4996852;28;20017;-80
2022/04/14 04:06:20;;;;;;;43.28;27.10;;;;;;;9.44;93.82;101983.47;5005848;28;20241;-80
2022/04/14 04:08:45;;;;;;;44.97;26.75;;;;;;;9.45;92.75;101979.19;5004184;28;20098;-79
2022/04/14 04:11:11;;;;;;;41.85;25.98;;;;;;;9.41;92.02;101985.94;5003117;28;20046;-79
2022/04/14 04:13:36;;;;;;;46.45;27.77;;;;;;;9.41;92.65;101983.34;5002962;28;20249;-79
2022/04/14 04:16:01;;;;;;;51.92;29.92;;;;;;;9.46;93.87;101984.47;4995892;28;20273;-79
2022/04/14 04:18:26;;;;;;;49.88;28.40;;;;;;;9.50;93.53;101996.78;5003273;28;20093;-80
2022/04/14 04:20:52;;;;;;;39.40;23.13;;;;;;;9.45;91.18;101995.66;5001127;28;20200;-79
2022/04/14 04:23:17;;;;;;;57.45;26.00;;;;;;;9.43;92.51;102007.72;5002185;28;20283;-80
2022/04/14 04:25:43;;;;;;;87.85;28.50;;;;;;;9.40;93.70;101999.78;5004465;28;20042;-80
2022/04/14 04:28:09;;;;;;;82.93;33.03;;;;;;;9.41;95.63;102004.16;4997780;28;20030;-79
2022/04/14 04:30:34;;;;;;;86.68;33.92;;;;;;;9.46;96.51;102002.66;5002476;28;20269;-79
2022/04/14 04:32:59;;;;;;;72.88;34.65;;;;;;;9.51;96.85;102001.16;5003562;28;21421;-79
2022/04/14 04:35:24;;;;;;;76.32;36.38;;;;;;;9.56;97.20;102002.28;4999808;28;20041;-79
2022/04/14 04:37:50;;;;;;;83.18;35.00;;;;;;;9.58;97.29;102008.41;4997659;28;20090;-79
2022/04/14 04:40:18;;;;;;;89.70;35.50;;;;;;;9.60;96.98;102007.63;4996689;28;20036;-78
2022/04/14 04:42:43;;;;;;;70.63;36.78;;;;;;;9.61;97.52;102015.47;4996114;28;20015;-78
2022/04/14 04:45:09;;;;;;;87.95;35.03;;;;;;;9.62;97.40;102013.78;5004013;28;20319;-78
2022/04/14 04:47:34;;;;;;;82.60;36.55;;;;;;;9.64;97.81;102013.03;4998985;28;20076;-78
2022/04/14 04:50:00;;;;;;;75.47;35.15;;;;;;;9.65;97.82;102024.34;5005563;28;20031;-78
2022/04/14 04:52:25;;;;;;;71.28;36.42;;;;;;;9.64;97.86;102017.34;4995418;28;20019;-78
2022/04/14 04:54:50;;;;;;;68.35;35.47;;;;;;;9.64;97.83;102019.94;4998421;28;20026;-78
2022/04/14 04:57:16;;;;;;;69.18;35.03;;;;;;;9.62;97.63;102019.88;4997539;28;20125;-78
2022/04/14 04:59:41;;;;;;;59.78;34.17;;;;;;;9.62;97.76;102024.22;4999996;28;20018;-78
2022/04/14 05:02:06;;;;;;;71.25;34.72;;;;;;;9.66;97.57;102031.31;5002635;28;20068;-78
2022/04/14 05:04:32;;;;;;;59.70;33.22;;;;;;;9.66;97.67;102026.09;5004761;28;20026;-79
2022/04/14 05:06:58;;;;;;;72.20;34.97;;;;;;;9.66;97.75;102027.00;5000529;28;20157;-78
2022/04/14 05:09:26;;;;;;;73.40;35.17;;;;;;;9.65;97.86;102032.16;5003441;28;20089;-78
2022/04/14 05:11:51;;;;;;;69.07;34.17;;;;;;;9.64;97.55;102026.03;5001008;28;20026;-79
2022/04/14 05:14:16;;;;;;;63.65;33.78;;;;;;;9.65;97.55;102029.53;4997245;28;20027;-79
2022/04/14 05:16:41;;;;;;;63.63;34.17;;;;;;;9.63;97.65;102031.16;5001088;28;20145;-79
2022/04/14 05:19:07;;;;;;;65.00;33.50;;;;;;;9.62;97.90;102034.63;5003120;28;20029;-78
2022/04/14 05:21:32;;;;;;;67.75;35.40;;;;;;;9.61;97.78;102038.91;5001530;28;20052;-78
2022/04/14 05:23:57;;;;;;;63.25;33.53;;;;;;;9.61;97.61;102040.63;4998271;28;20040;-78
2022/04/14 05:26:23;;;;;;;72.07;33.90;;;;;;;9.58;97.67;102038.78;4997135;28;20018;-78
2022/04/14 05:28:48;;;;;;;61.65;34.88;;;;;;;9.56;97.71;102040.41;5003478;28;20260;-78
2022/04/14 05:31:14;;;;;;;55.42;33.03;;;;;;;9.56;97.35;102035.22;4995958;28;20031;-78
2022/04/14 05:33:39;;;;;;;71.85;32.90;;;;;;;9.54;97.27;102042.94;5000533;28;20320;-78
2022/04/14 05:36:05;;;;;;;56.58;33.15;;;;;;;9.54;97.11;102053.38;4998403;28;20027;-78
2022/04/14 05:38:31;;;;;;;51.83;31.38;;;;;;;9.55;96.92;102052.53;4996082;28;20089;-79
2022/04/14 05:40:56;;;;;;;78.43;33.38;;;;;;;9.53;96.86;102054.16;5003734;28;20022;-79
2022/04/14 05:43:27;;;;;;;69.45;32.03;;;;;;;9.51;96.39;102063.59;4999033;28;20030;-78
2022/04/14 05:45:54;;;;;;;62.75;31.35;;;;;;;9.51;96.86;102063.59;5003696;28;20033;-78
2022/04/14 05:48:19;;;;;;;52.25;31.48;;;;;;;9.53;96.75;102068.88;5000462;28;20034;-78
2022/04/14 05:50:46;;;;;;;64.38;31.75;;;;;;;9.56;96.61;102072.53;4994037;28;20044;-78
2022/04/14 05:53:12;;;;;;;49.35;31.70;;;;;;;9.58;96.71;102065.66;5001354;28;20033;-78
2022/04/14 05:55:39;;;;;;;52.75;31.20;;;;;;;9.61;96.67;102064.06;4994213;28;20022;-79
2022/04/14 05:58:06;;;;;;;58.17;31.75;;;;;;;9.66;96.59;102065.13;5002183;28;20253;-78
2022/04/14 06:00:33;;;;;;;55.15;32.17;;;;;;;9.70;96.36;102069.66;4993938;28;20042;-78
2022/04/14 06:02:59;;;;;;;51.80;31.98;;;;;;;9.76;96.38;102064.75;5001793;28;20050;-78
2022/04/14 06:05:26;;;;;;;65.85;32.17;;;;;;;9.80;95.71;102071.88;4996188;28;20015;-78
2022/04/14 06:07:52;;;;;;;53.55;31.33;;;;;;;9.81;95.64;102063.25;5000346;28;20068;-78
2022/04/14 06:10:17;;;;;;;54.30;31.23;;;;;;;9.86;95.88;102069.59;4991855;28;20030;-78
2022/04/14 06:12:42;;;;;;;50.05;30.40;;;;;;;9.91;95.43;102075.00;5000023;28;20052;-78
2022/04/14 06:15:08;;;;;;;50.90;31.75;;;;;;;9.94;95.46;102063.84;5003356;28;20026;-78
2022/04/14 06:17:33;;;;;;;49.92;30.88;;;;;;;9.96;95.25;102065.66;5000236;28;20138;-78
2022/04/14 06:19:59;;;;;;;52.00;31.25;;;;;;;10.01;95.50;102065.91;5005212;28;20022;-78
2022/04/14 06:22:24;;;;;;;50.83;32.03;;;;;;;10.05;95.60;102066.09;4996634;28;20031;-78
2022/04/14 06:24:49;;;;;;;51.92;32.10;;;;;;;10.08;95.81;102070.56;4990327;28;20262;-78
2022/04/14 06:27:15;;;;;;;50.75;31.38;;;;;;;10.12;95.81;102069.88;5001533;28;20053;-78
2022/04/14 06:29:40;;;;;;;51.00;30.67;;;;;;;10.18;95.79;102067.56;5000962;28;20275;-78
2022/04/14 06:32:06;;;;;;;54.35;33.47;;;;;;;10.20;96.22;102068.50;4997391;28;20146;-78
2022/04/14 06:34:31;;;;;;;54.08;32.03;;;;;;;10.26;96.34;102073.97;4996839;28;20262;-78
2022/04/14 06:36:57;;;;;;;53.50;31.98;;;;;;;10.32;96.30;102078.56;4997971;28;20034;-78
2022/04/14 06:39:22;;;;;;;49.75;29.83;;;;;;;10.37;95.75;102078.81;5001052;28;20026;-78
2022/04/14 06:41:47;;;;;;;51.47;32.08;;;;;;;10.50;96.54;102081.16;5002298;28;20284;-78
2022/04/14 06:44:13;;;;;;;56.00;33.03;;;;;;;12.39;92.14;102081.69;4998388;28;20193;-78
2022/04/14 06:46:39;;;;;;;45.70;29.13;;;;;;;16.09;76.64;102069.47;4993883;28;20170;-78
2022/04/14 06:49:05;;;;;;;38.42;24.90;;;;;;;19.39;63.83;102058.19;4992840;28;20026;-78
2022/04/14 06:51:31;;;;;;;33.97;24.50;;;;;;;22.17;54.26;102060.19;4998514;28;20212;-78
2022/04/14 06:53:56;;;;;;;33.30;22.67;;;;;;;24.22;47.33;102061.00;5000608;28;20018;-78
2022/04/14 06:56:21;;;;;;;32.65;21.70;;;;;;;25.80;42.33;102061.00;4996587;28;20072;-78
2022/04/14 06:58:46;;;;;;;30.65;21.27;;;;;;;27.12;40.32;102064.22;4992718;28;20148;-78
2022/04/14 07:01:12;;;;;;;30.33;21.17;;;;;;;26.46;40.03;102061.34;4997098;28;20056;-78
2022/04/14 07:03:37;;;;;;;29.73;21.23;;;;;;;24.21;44.63;102067.22;4997695;28;20089;-78
2022/04/14 07:06:03;;;;;;;29.88;20.90;;;;;;;22.08;49.97;102065.56;4991800;28;20053;-78
2022/04/14 07:08:29;;;;;;;28.70;20.98;;;;;;;20.35;53.42;102071.88;4996915;28;20061;-78
2022/04/14 07:10:59;;;;;;;33.30;21.92;;;;;;;18.94;58.59;102064.88;5003464;28;20014;-78
2022/04/14 07:13:24;;;;;;;31.58;21.63;;;;;;;17.93;62.48;102070.84;5002038;28;20022;-78
2022/04/14 07:15:50;;;;;;;30.30;20.90;;;;;;;17.16;65.03;102073.22;5002152;28;20057;-79
2022/04/14 07:18:15;;;;;;;31.23;20.83;;;;;;;16.52;66.26;102079.09;4998824;28;20466;-78
2022/04/14 07:20:40;;;;;;;30.20;20.70;;;;;;;16.04;68.76;102074.63;4993887;28;20184;-79
2022/04/14 07:23:06;;;;;;;32.03;21.30;;;;;;;15.65;70.50;102065.88;4997837;28;20014;-79
2022/04/14 07:25:33;;;;;;;31.92;21.92;;;;;;;15.38;73.40;102079.28;4993811;28;20043;-78
2022/04/14 07:28:01;;;;;;;32.03;20.80;;;;;;;15.15;72.33;102080.44;4998312;28;20053;-78
2022/04/14 07:30:27;;;;;;;33.35;20.95;;;;;;;14.96;73.70;102079.97;5000854;28;20025;-79
2022/04/14 07:32:54;;;;;;;30.98;20.83;;;;;;;14.76;73.76;102084.75;4997899;28;20014;-78
2022/04/14 07:35:25;;;;;;;33.42;21.30;;;;;;;14.65;75.73;102091.44;5001592;28;20018;-78
2022/04/14 07:37:51;;;;;;;33.63;21.25;;;;;;;14.57;76.00;102085.94;5002087;28;20015;-78
2022/04/14 07:40:18;;;;;;;34.28;21.98;;;;;;;14.50;75.92;102091.88;4990842;28;20021;-78
2022/04/14 07:42:45;;;;;;;33.05;20.33;;;;;;;14.48;76.16;102094.44;5002873;28;20309;-78
2022/04/14 07:45:13;;;;;;;34.63;20.75;;;;;;;14.44;76.16;102089.97;4999661;28;20121;-78
2022/04/14 07:47:41;;;;;;;29.33;19.38;;;;;;;14.42;75.84;102094.28;4998041;28;20089;-78
2022/04/14 07:50:07;;;;;;;29.17;19.90;;;;;;;14.40;76.34;102091.63;5003823;28;20021;-78
2022/04/14 07:52:50;;;;;;;31.63;20.92;;;;;;;14.41;75.94;102095.09;5005632;28;20089;-78
2022/04/14 07:55:37;;;;;;;32.00;21.38;;;;;;;14.43;77.33;102101.31;5007752;28;20045;-78
2022/04/14 07:58:07;;;;;;;32.38;21.45;;;;;;;14.46;77.90;102104.00;4996791;28;20136;-78
2022/04/14 08:00:32;;;;;;;;;;;;;;;14.54;76.85;102106.84;4997639;28;20048;-78
2022/04/14 08:03:00;;;;;;;30.55;19.88;;;;;;;14.52;77.45;102098.03;5007266;28;20113;-78
2022/04/14 08:05:28;;;;;;;28.17;18.55;;;;;;;14.57;78.15;102101.66;4998231;28;20874;-78
2022/04/14 08:07:53;;;;;;;33.67;19.67;;;;;;;14.59;77.10;102100.00;4997691;28;20042;-79
2022/04/14 08:10:19;;;;;;;30.60;19.80;;;;;;;14.64;77.07;102100.16;5000438;28;20038;-79
2022/04/14 08:12:44;;;;;;;25.73;16.95;;;;;;;14.65;74.93;102097.56;5006468;28;20304;-78
2022/04/14 08:15:12;;;;;;;26.23;17.38;;;;;;;14.66;75.29;102106.34;5001787;28;20019;-78
2022/04/14 08:17:38;;;;;;;28.58;17.80;;;;;;;14.69;76.34;102101.16;4998945;28;20029;-80
2022/04/14 08:20:05;;;;;;;22.70;15.70;;;;;;;14.73;77.48;102103.91;5003996;28;20153;-80
2022/04/14 08:22:46;;;;;;;23.02;15.48;;;;;;;14.78;75.93;102102.28;5000616;28;20046;-80
2022/04/14 08:25:20;;;;;;;22.95;15.20;;;;;;;14.85;75.26;102094.59;4999099;28;20056;-80
2022/04/14 08:27:47;;;;;;;23.70;15.23;;;;;;;14.91;73.29;102102.63;4996939;28;20019;-80
2022/04/14 08:30:13;;;;;;;24.65;15.35;;;;;;;14.94;73.80;102100.06;5001632;28;20046;-80
2022/04/14 08:32:39;;;;;;;21.52;13.75;;;;;;;15.02;74.82;102101.16;4999314;28;20045;-80
2022/04/14 08:35:04;;;;;;;23.33;16.17;;;;;;;15.07;73.56;102096.03;4996727;28;20022;-80
2022/04/14 08:37:30;;;;;;;23.05;15.63;;;;;;;15.11;74.90;102101.38;4997604;28;20030;-80
2022/04/14 08:39:57;;;;;;;23.60;15.27;;;;;;;15.17;72.92;102099.78;5000038;28;20026;-81
2022/04/14 08:42:26;;;;;;;22.42;15.98;;;;;;;15.20;72.70;102105.97;4999611;28;20037;-80
2022/04/14 08:45:02;;;;;;;22.30;15.50;;;;;;;15.24;72.44;102096.44;5001690;28;20010;-82
2022/04/14 08:47:29;;;;;;;24.65;16.17;;;;;;;15.27;72.64;102100.03;5001135;28;20026;-75
2022/04/14 08:49:56;;;;;;;20.83;14.82;;;;;;;15.30;72.24;102093.97;5003430;28;20018;-79
2022/04/14 08:52:22;;;;;;;24.40;16.42;;;;;;;15.34;71.64;102098.44;5000156;28;20021;-75
2022/04/14 08:54:49;;;;;;;21.13;14.75;;;;;;;15.39;72.88;102094.16;5003600;28;20026;-75
2022/04/14 08:57:16;;;;;;;21.60;13.70;;;;;;;15.45;71.38;102101.31;5003083;28;20117;-76
2022/04/14 08:59:45;;;;;;;17.50;11.98;;;;;;;15.50;70.95;102094.44;4998351;28;20018;-82
2022/04/14 09:02:17;;;;;;;21.73;13.45;;;;;;;15.57;73.12;102105.97;5002101;28;20018;-82
2022/04/14 09:04:43;;;;;;;18.92;12.68;;;;;;;15.64;71.23;102102.63;5000432;28;20029;-87
2022/04/14 09:07:11;;;;;;;18.20;13.00;;;;;;;15.68;71.41;102103.59;5003794;28;20029;-78
2022/04/14 09:09:38;;;;;;;19.10;12.80;;;;;;;15.75;71.97;102100.25;5000940;28;20073;-78
2022/04/14 09:12:05;;;;;;;17.02;10.07;;;;;;;15.79;70.81;102102.13;4993901;28;20018;-77
2022/04/14 09:14:34;;;;;;;17.90;11.90;;;;;;;15.86;70.97;102096.16;4996651;28;20052;-78
2022/04/14 09:17:02;;;;;;;18.52;11.88;;;;;;;15.94;70.14;102101.56;4998650;28;20030;-87
2022/04/14 09:19:32;;;;;;;17.70;11.07;;;;;;;15.99;69.98;102089.44;4998061;28;20010;-71
2022/04/14 09:22:02;;;;;;;15.43;10.77;;;;;;;16.02;69.28;102099.09;5003082;28;20041;-72
2022/04/14 09:24:49;;;;;;;16.15;10.52;;;;;;;16.09;69.79;102079.97;5001734;28;20026;-72
2022/04/14 09:27:29;;;;;;;17.40;11.40;;;;;;;16.13;69.53;102081.81;4998041;28;20057;-72
2022/04/14 09:29:57;;;;;;;17.48;10.63;;;;;;;16.16;67.19;102088.03;5003609;28;20026;-72
2022/04/14 09:32:42;;;;;;;16.95;11.63;;;;;;;16.22;68.78;102089.00;5004983;28;20014;-71
2022/04/14 09:35:19;;;;;;;13.35;9.30;;;;;;;16.27;68.63;102087.38;5005208;28;20024;-71
2022/04/14 09:37:46;;;;;;;19.02;10.85;;;;;;;16.34;67.17;102081.38;5003341;28;20045;-71
2022/04/14 09:40:12;;;;;;;15.90;10.95;;;;;;;16.40;67.22;102086.75;5004248;28;20022;-71
2022/04/14 09:42:43;;;;;;;16.02;10.60;;;;;;;16.43;67.82;102080.66;5003220;28;20257;-71
2022/04/14 09:45:25;;;;;;;14.52;8.95;;;;;;;16.46;67.59;102076.31;4995466;28;20292;-71
2022/04/14 09:47:52;;;;;;;13.82;9.40;;;;;;;16.56;69.40;102072.13;5004403;28;20258;-71
2022/04/14 09:50:39;;;;;;;12.30;8.50;;;;;;;16.59;65.66;102072.19;4998255;28;20014;-71
2022/04/14 09:53:12;;;;;;;11.60;7.55;;;;;;;16.66;64.70;102066.19;4999324;28;20033;-71
2022/04/14 09:55:58;;;;;;;14.95;8.98;;;;;;;16.74;66.28;102068.94;5000858;28;20048;-72
2022/04/14 09:58:26;;;;;;;14.25;8.40;;;;;;;16.77;63.55;102060.22;5004438;28;20024;-71
2022/04/14 10:00:56;;;;;;;11.70;7.55;;;;;;;16.79;64.27;102067.28;5003024;28;20057;-71
2022/04/14 10:03:26;;;;;;;11.32;7.63;;;;;;;16.82;60.77;102058.56;5003094;28;20030;-71
2022/04/14 10:05:56;;;;;;;11.55;7.95;;;;;;;16.86;61.98;102052.50;5003546;28;20030;-71
2022/04/14 10:08:25;;;;;;;12.45;8.30;;;;;;;16.94;65.28;102055.28;5003201;28;20045;-71
2022/04/14 10:11:09;;;;;;;13.13;8.15;;;;;;;17.03;64.49;102052.78;4991805;28;20032;-71
2022/04/14 10:13:38;;;;;;;12.55;8.40;;;;;;;17.09;62.47;102060.81;5002983;28;20033;-71
2022/04/14 10:16:04;;;;;;;10.27;6.70;;;;;;;17.16;61.68;102064.41;5000425;28;20026;-79
2022/04/14 10:18:30;;;;;;;10.20;5.95;;;;;;;17.20;61.20;102076.78;5001820;28;20064;-79
2022/04/14 10:20:56;;;;;;;6.88;4.50;;;;;;;17.26;58.37;102081.25;5002336;28;20105;-79
2022/04/14 10:23:22;;;;;;;11.90;6.38;;;;;;;17.33;62.58;102081.34;4994612;28;20019;-79
2022/04/14 10:25:50;;;;;;;9.45;5.00;;;;;;;17.40;59.23;102092.91;5000039;28;20022;-79
2022/04/14 10:28:16;;;;;;;7.73;5.10;;;;;;;17.49;61.25;102093.03;4996020;28;20018;-79
2022/04/14 10:30:55;;;;;;;7.57;4.03;;;;;;;17.55;58.46;102094.88;5001759;28;20312;-80
2022/04/14 10:33:22;;;;;;;9.20;5.75;;;;;;;17.59;58.41;102101.97;4997050;28;20072;-79
2022/04/14 10:35:48;;;;;;;7.18;3.97;;;;;;;17.61;57.85;102083.53;4997393;28;20087;-79
2022/04/14 10:38:36;;;;;;;5.70;3.63;;;;;;;17.69;61.73;102087.16;5002672;28;20275;-79
2022/04/14 10:41:12;;;;;;;7.03;4.23;;;;;;;17.84;63.70;102102.31;5001007;28;20034;-79
2022/04/14 10:43:41;;;;;;;6.40;4.60;;;;;;;17.89;60.60;102098.88;4998644;28;20431;-79
2022/04/14 10:46:06;;;;;;;7.65;4.70;;;;;;;17.96;59.99;102097.25;5002796;28;20015;-79
2022/04/14 10:48:34;;;;;;;5.75;2.78;;;;;;;18.03;60.64;102092.91;5002568;28;20026;-79
2022/04/14 10:51:23;;;;;;;5.65;3.05;;;;;;;18.14;62.62;102090.44;5002162;28;20041;-80
2022/04/14 10:53:55;;;;;;;6.78;4.22;;;;;;;18.18;59.42;102094.88;4998141;28;20077;-80
2022/04/14 10:56:42;;;;;;;12.50;5.35;;;;;;;18.17;59.43;102101.00;5000154;28;20056;-81
2022/04/14 10:59:09;;;;;;;21.60;5.55;;;;;;;18.13;54.31;102084.25;5001396;28;20075;-80
2022/04/14 11:01:50;;;;;;;9.65;5.30;;;;;;;18.11;57.14;102082.47;5002822;28;20026;-81
2022/04/14 11:04:41;;;;;;;7.40;4.93;;;;;;;18.13;58.55;102086.00;5000586;28;20157;-82
2022/04/14 11:07:14;;;;;;;8.63;5.68;;;;;;;18.25;68.02;102089.69;5002267;28;20030;-84
2022/04/14 11:09:42;;;;;;;9.13;4.45;;;;;;;18.33;56.83;102086.25;5002705;28;20034;-78
2022/04/14 11:12:27;;;;;;;6.47;3.72;;;;;;;18.31;58.87;102082.72;5000790;28;20026;-78
2022/04/14 11:14:58;;;;;;;8.65;4.60;;;;;;;18.33;58.13;102075.69;5001131;28;20038;-78
2022/04/14 11:17:53;;;;;;;8.57;4.68;;;;;;;18.33;59.98;102079.22;5003436;28;20014;-78